Pagrindinis puslapis
METAR-TAF:

METAR-TAF

Oro uostai :

San Marcos Municipal Airport

San Marcos, Teksasas, Jungtinės Amerikos Valstijos

platuma: 29-53-37N, ilguma: 097-51-53W, Aukštis: 182 m

Dabartinis oras

Ataskaita buvo paskelbta 20 minutes, ne 02:56 UTC
Vėjas 5 kt iš Pietryčių
Temperatūra 22°C
Drėgmė 100%
Slėgis 1013 hPa
Matomumas: 16.1 km
Apsiniaukę ne aukštis 2100 ft

METAR: KHYI 170256Z AUTO 14005KT 10SM OVC021 22/22 A2992 RMK AO2 SLP122 6//// T02220217 53004 PNO $

Laikas: 22:16 (03:16 UTC)


TAF: trūkstamas

Orai ataskaitas ir orų prognozės (METAR, TAF).

turimą stotys yra geltonos ir raudonos taškus žemėlapyje.

Perkelti pele per norėdami pamatyti stoties vardą.

Tada spustelėkite, norėdami matyti oro stebėjimo ir prognozės.

Norėdami pakeisti žemėlapį: spustelėkite ant žalios mygtukų su juodo kryžiaus žemyn,; žalią mygtuką su brūkšneliu, jei norite nutolinti; arba žalių rodyklių gretimoms žemėlapius.


METAR-TAF: